Time;durP1;ratioP1;P1;durP2;ratioP2;P2;SDS_P1;SDS_P2;PMS_P1;PMS_P2;Temp;Humidity;BMP_temperature;BMP_pressure;BME280_temperature;BME280_humidity;BME280_pressure;Samples;Min_cycle;Max_cycle;Signal;HPM_P1;HPM_P2
2023/07/25 00:01:05;;;;;;;0.00;0.00;;;15.10;100.00;;;;;;5110477;28;20048;-81
2023/07/25 00:03:32;;;;;;;0.00;0.00;;;15.10;100.00;;;;;;5104189;28;21297;-81
2023/07/25 00:06:03;;;;;;;0.00;0.00;;;15.00;100.00;;;;;;5108206;28;20120;-80
2023/07/25 00:08:31;;;;;;;0.00;0.00;;;15.00;100.00;;;;;;5104795;28;20501;-81
2023/07/25 00:11:00;;;;;;;0.00;0.00;;;15.10;100.00;;;;;;5126815;27;20048;-81
2023/07/25 00:13:27;;;;;;;0.00;0.00;;;15.00;100.00;;;;;;5102475;28;20060;-81
2023/07/25 00:15:54;;;;;;;0.00;0.00;;;15.00;100.00;;;;;;5108545;28;20047;-81
2023/07/25 00:18:21;;;;;;;0.00;0.00;;;14.90;100.00;;;;;;5108655;28;20052;-81
2023/07/25 00:20:48;;;;;;;0.00;0.00;;;14.90;100.00;;;;;;5110204;28;20055;-80
2023/07/25 00:23:15;;;;;;;0.00;0.00;;;14.90;100.00;;;;;;5106651;28;20083;-82
2023/07/25 00:25:41;;;;;;;0.00;0.00;;;14.90;100.00;;;;;;5107075;28;20056;-82
2023/07/25 00:28:08;;;;;;;0.00;0.00;;;14.80;100.00;;;;;;5107612;28;20047;-81
2023/07/25 00:30:35;;;;;;;0.00;0.00;;;14.80;100.00;;;;;;5107974;28;20044;-82
2023/07/25 00:33:02;;;;;;;0.00;0.00;;;14.80;100.00;;;;;;5107993;28;20127;-82
2023/07/25 00:35:29;;;;;;;0.00;0.00;;;14.80;100.00;;;;;;5107992;28;20051;-81
2023/07/25 00:37:56;;;;;;;0.00;0.00;;;14.80;100.00;;;;;;5107454;28;20141;-82
2023/07/25 00:40:23;;;;;;;0.00;0.00;;;14.70;100.00;;;;;;5107467;28;20427;-81
2023/07/25 00:42:54;;;;;;;0.00;0.00;;;14.70;100.00;;;;;;5109873;28;20108;-81
2023/07/25 00:45:22;;;;;;;0.00;0.00;;;14.70;100.00;;;;;;5108238;28;20403;-81
2023/07/25 00:47:49;;;;;;;0.00;0.00;;;14.70;100.00;;;;;;5107379;28;20653;-81
2023/07/25 00:50:17;;;;;;;0.00;0.00;;;14.60;100.00;;;;;;5104911;28;20124;-81
2023/07/25 00:52:44;;;;;;;0.00;0.00;;;14.60;100.00;;;;;;5107465;28;20051;-82
2023/07/25 00:55:12;;;;;;;0.00;0.00;;;14.50;100.00;;;;;;5103602;28;20488;-81
2023/07/25 00:57:39;;;;;;;0.00;0.00;;;14.50;100.00;;;;;;5106033;28;20167;-81
2023/07/25 01:00:06;;;;;;;0.00;0.00;;;14.40;100.00;;;;;;5106637;28;20769;-81
2023/07/25 01:02:34;;;;;;;0.00;0.00;;;14.30;100.00;;;;;;5109471;28;20044;-82
2023/07/25 01:05:01;;;;;;;0.00;0.00;;;14.30;100.00;;;;;;5104498;28;20127;-81
2023/07/25 01:07:30;;;;;;;0.00;0.00;;;14.20;100.00;;;;;;5107919;28;20437;-81
2023/07/25 01:09:57;;;;;;;0.00;0.00;;;14.10;100.00;;;;;;5102034;28;20044;-80
2023/07/25 01:12:24;;;;;;;0.00;0.00;;;14.00;100.00;;;;;;5107739;28;20042;-81
2023/07/25 01:14:51;;;;;;;0.00;0.00;;;14.00;100.00;;;;;;5110094;28;20040;-81
2023/07/25 01:17:22;;;;;;;0.00;0.00;;;13.90;100.00;;;;;;5108061;28;20083;-81
2023/07/25 01:19:51;;;;;;;0.00;0.00;;;13.80;100.00;;;;;;5106158;28;20051;-81
2023/07/25 01:22:19;;;;;;;0.00;0.00;;;13.80;100.00;;;;;;5106726;28;20071;-81
2023/07/25 01:24:47;;;;;;;0.00;0.00;;;13.70;100.00;;;;;;5105974;28;20051;-81
2023/07/25 01:27:15;;;;;;;0.00;0.00;;;13.60;100.00;;;;;;5110171;28;20042;-82
2023/07/25 01:29:43;;;;;;;0.00;0.00;;;13.60;100.00;;;;;;5106656;28;20043;-80
2023/07/25 01:32:11;;;;;;;0.00;0.00;;;13.50;100.00;;;;;;5105874;28;20035;-80
2023/07/25 01:34:38;;;;;;;0.00;0.00;;;13.50;100.00;;;;;;5107535;28;20048;-80
2023/07/25 01:37:06;;;;;;;0.00;0.00;;;13.50;100.00;;;;;;5108102;28;20043;-81
2023/07/25 01:39:33;;;;;;;0.00;0.00;;;13.40;100.00;;;;;;5106629;28;20127;-81
2023/07/25 01:42:00;;;;;;;0.00;0.00;;;13.40;100.00;;;;;;5107583;28;20051;-81
2023/07/25 01:44:27;;;;;;;0.00;0.00;;;13.40;100.00;;;;;;5108581;28;20043;-81
2023/07/25 01:46:57;;;;;;;0.00;0.00;;;13.40;100.00;;;;;;5105526;28;20580;-81
2023/07/25 01:49:24;;;;;;;0.00;0.00;;;13.30;100.00;;;;;;5103304;28;20124;-81
2023/07/25 01:51:51;;;;;;;0.00;0.00;;;13.30;100.00;;;;;;5107604;27;20445;-83
2023/07/25 01:54:18;;;;;;;0.00;0.00;;;13.30;100.00;;;;;;5105188;28;20441;-82
2023/07/25 01:56:45;;;;;;;0.00;0.00;;;13.30;100.00;;;;;;5110422;28;20058;-83
2023/07/25 01:59:16;;;;;;;0.00;0.00;;;13.30;100.00;;;;;;5109620;28;20051;-82
2023/07/25 02:01:43;;;;;;;0.00;0.00;;;13.30;100.00;;;;;;5101359;28;20067;-83
2023/07/25 02:04:10;;;;;;;0.00;0.00;;;13.20;100.00;;;;;;5108237;28;20044;-82
2023/07/25 02:06:37;;;;;;;0.00;0.00;;;13.20;100.00;;;;;;5103532;28;20046;-82
2023/07/25 02:09:04;;;;;;;0.00;0.00;;;13.20;100.00;;;;;;5110063;28;20044;-82
2023/07/25 02:11:31;;;;;;;0.00;0.00;;;13.20;100.00;;;;;;5108702;28;20047;-82
2023/07/25 02:13:58;;;;;;;0.00;0.00;;;13.10;100.00;;;;;;5101649;28;20527;-81
2023/07/25 02:16:25;;;;;;;0.00;0.00;;;13.10;100.00;;;;;;5108145;28;20100;-81
2023/07/25 02:18:52;;;;;;;0.00;0.00;;;13.10;100.00;;;;;;5097152;28;20503;-81
2023/07/25 02:21:19;;;;;;;0.00;0.00;;;13.10;100.00;;;;;;5108120;28;20124;-81
2023/07/25 02:23:46;;;;;;;0.00;0.00;;;13.00;100.00;;;;;;5105324;28;20480;-82
2023/07/25 02:26:13;;;;;;;0.00;0.00;;;13.10;100.00;;;;;;5109656;28;20123;-82
2023/07/25 02:28:40;;;;;;;0.00;0.00;;;13.00;100.00;;;;;;5113492;28;20062;-82
2023/07/25 02:31:07;;;;;;;0.00;0.00;;;13.00;100.00;;;;;;5113484;28;20043;-82
2023/07/25 02:33:34;;;;;;;0.00;0.00;;;12.90;100.00;;;;;;5113558;28;20040;-82
2023/07/25 02:36:00;;;;;;;0.00;0.00;;;12.90;100.00;;;;;;5117535;28;20046;-82
2023/07/25 02:38:27;;;;;;;0.00;0.00;;;12.90;100.00;;;;;;5110681;28;20054;-81
2023/07/25 02:40:54;;;;;;;0.00;0.00;;;12.90;100.00;;;;;;5106758;28;20053;-81
2023/07/25 02:43:22;;;;;;;0.00;0.00;;;12.90;100.00;;;;;;5106442;28;20128;-82
2023/07/25 02:45:50;;;;;;;0.00;0.00;;;12.90;100.00;;;;;;5108407;28;20096;-81
2023/07/25 02:48:17;;;;;;;0.00;0.00;;;12.90;100.00;;;;;;5110747;28;20123;-81
2023/07/25 02:50:44;;;;;;;0.00;0.00;;;12.90;100.00;;;;;;5111083;28;20203;-81
2023/07/25 02:53:11;;;;;;;0.00;0.00;;;12.80;100.00;;;;;;5108367;28;20048;-81
2023/07/25 02:55:39;;;;;;;0.00;0.00;;;12.80;100.00;;;;;;5103991;28;20075;-81
2023/07/25 02:58:06;;;;;;;0.00;0.00;;;12.90;100.00;;;;;;5126845;27;20184;-81
2023/07/25 03:00:33;;;;;;;0.00;0.00;;;12.90;100.00;;;;;;5103423;28;20797;-81
2023/07/25 03:02:59;;;;;;;0.00;0.00;;;12.90;100.00;;;;;;5107837;28;20067;-81
2023/07/25 03:05:28;;;;;;;0.00;0.00;;;12.90;100.00;;;;;;5106438;28;20818;-81
2023/07/25 03:07:56;;;;;;;0.00;0.00;;;12.90;100.00;;;;;;5109354;28;20043;-82
2023/07/25 03:10:23;;;;;;;0.00;0.00;;;12.90;100.00;;;;;;5107151;28;20123;-81
2023/07/25 03:12:51;;;;;;;0.00;0.00;;;12.80;100.00;;;;;;5110410;28;20043;-82
2023/07/25 03:15:19;;;;;;;0.00;0.00;;;12.80;100.00;;;;;;5109002;28;20051;-80
2023/07/25 03:17:46;;;;;;;0.00;0.00;;;12.90;100.00;;;;;;5107424;28;20047;-81
2023/07/25 03:20:12;;;;;;;0.00;0.00;;;12.80;100.00;;;;;;5105745;28;20108;-82
2023/07/25 03:22:39;;;;;;;0.00;0.00;;;12.80;100.00;;;;;;5107481;28;20054;-81
2023/07/25 03:25:07;;;;;;;0.00;0.00;;;12.80;100.00;;;;;;5104662;28;20052;-81
2023/07/25 03:27:34;;;;;;;0.00;0.00;;;12.80;100.00;;;;;;5104021;28;20388;-82
2023/07/25 03:30:02;;;;;;;0.00;0.00;;;12.80;100.00;;;;;;5105165;28;20126;-82
2023/07/25 03:32:28;;;;;;;0.00;0.00;;;12.80;100.00;;;;;;5106832;28;20122;-82
2023/07/25 03:34:56;;;;;;;0.00;0.00;;;12.80;100.00;;;;;;5106492;28;20040;-82
2023/07/25 03:37:22;;;;;;;0.00;0.00;;;12.90;100.00;;;;;;5108189;28;20122;-81
2023/07/25 03:39:49;;;;;;;0.00;0.00;;;12.80;100.00;;;;;;5106436;28;20055;-82
2023/07/25 03:42:16;;;;;;;0.00;0.00;;;12.80;100.00;;;;;;5103539;28;20062;-81
2023/07/25 03:44:43;;;;;;;0.00;0.00;;;12.80;100.00;;;;;;5100618;28;20597;-82
2023/07/25 03:49:56;;;;;;;0.00;0.00;;;12.90;100.00;;;;;;4994974;28;20061;-75
2023/07/25 03:52:22;;;;;;;0.00;0.00;;;12.90;100.00;;;;;;4996011;28;20054;-75
2023/07/25 03:54:49;;;;;;;0.00;0.00;;;13.00;100.00;;;;;;4995857;28;20049;-75
2023/07/25 03:57:16;;;;;;;0.00;0.00;;;13.00;100.00;;;;;;4992853;28;20052;-75
2023/07/25 03:59:43;;;;;;;0.00;0.00;;;13.10;100.00;;;;;;4996528;28;20136;-76
2023/07/25 04:02:10;;;;;;;0.00;0.00;;;13.20;100.00;;;;;;4994413;28;20151;-75
2023/07/25 04:04:37;;;;;;;0.00;0.00;;;13.30;100.00;;;;;;4994408;28;20054;-76
2023/07/25 04:07:04;;;;;;;0.00;0.00;;;13.30;100.00;;;;;;4995827;28;20078;-76
2023/07/25 04:09:31;;;;;;;0.00;0.00;;;13.30;100.00;;;;;;4996207;28;20058;-76
2023/07/25 04:11:58;;;;;;;0.00;0.00;;;13.30;100.00;;;;;;4993801;28;20136;-76
2023/07/25 04:14:24;;;;;;;0.00;0.00;;;13.40;100.00;;;;;;5000979;28;20042;-76
2023/07/25 04:16:51;;;;;;;0.00;0.00;;;13.40;100.00;;;;;;5000773;28;20060;-76
2023/07/25 04:19:18;;;;;;;0.00;0.00;;;13.40;100.00;;;;;;5004559;28;20073;-76
2023/07/25 04:21:45;;;;;;;0.00;0.00;;;13.30;100.00;;;;;;5003336;28;20085;-76
2023/07/25 04:24:12;;;;;;;0.00;0.00;;;13.30;100.00;;;;;;5001908;28;20077;-76
2023/07/25 04:26:39;;;;;;;0.00;0.00;;;13.30;100.00;;;;;;5002486;28;20045;-76
2023/07/25 04:29:05;;;;;;;0.00;0.00;;;13.30;100.00;;;;;;5002674;28;20165;-76
2023/07/25 04:31:32;;;;;;;0.00;0.00;;;13.30;100.00;;;;;;5002920;28;20046;-75
2023/07/25 04:34:00;;;;;;;0.00;0.00;;;13.30;100.00;;;;;;5003351;28;20046;-76
2023/07/25 04:36:28;;;;;;;0.00;0.00;;;13.40;100.00;;;;;;5000213;28;20056;-76
2023/07/25 04:38:56;;;;;;;0.00;0.00;;;13.40;100.00;;;;;;5002316;28;20058;-76
2023/07/25 04:41:23;;;;;;;0.00;0.00;;;13.40;100.00;;;;;;5001783;28;20133;-76
2023/07/25 04:43:50;;;;;;;0.00;0.00;;;13.50;100.00;;;;;;5001202;28;20062;-76
2023/07/25 04:46:17;;;;;;;0.00;0.00;;;13.50;100.00;;;;;;5013156;28;20050;-76
2023/07/25 04:48:44;;;;;;;0.00;0.00;;;13.40;100.00;;;;;;4997287;28;20054;-76
2023/07/25 04:51:11;;;;;;;0.00;0.00;;;13.40;100.00;;;;;;4996312;28;21529;-76
2023/07/25 04:53:38;;;;;;;0.00;0.00;;;13.40;100.00;;;;;;4996005;28;20100;-76
2023/07/25 04:56:04;;;;;;;0.00;0.00;;;13.40;100.00;;;;;;4996824;28;20124;-76
2023/07/25 04:58:31;;;;;;;0.00;0.00;;;13.40;100.00;;;;;;4999458;28;20056;-76
2023/07/25 05:00:58;;;;;;;0.00;0.00;;;13.50;100.00;;;;;;4997374;28;20189;-76
2023/07/25 05:03:25;;;;;;;0.00;0.00;;;13.50;100.00;;;;;;4998060;28;20064;-76
2023/07/25 05:05:55;;;;;;;0.00;0.00;;;13.60;100.00;;;;;;4996620;28;20743;-76
2023/07/25 05:08:21;;;;;;;0.00;0.00;;;13.60;100.00;;;;;;4997501;28;20073;-76
2023/07/25 05:10:51;;;;;;;0.00;0.00;;;13.70;100.00;;;;;;4999407;28;20061;-76
2023/07/25 05:13:18;;;;;;;0.00;0.00;;;13.80;100.00;;;;;;4997805;28;20042;-76
2023/07/25 05:15:45;;;;;;;0.00;0.00;;;13.80;100.00;;;;;;5002137;28;20046;-76
2023/07/25 05:18:12;;;;;;;0.00;0.00;;;13.90;100.00;;;;;;5003003;28;20052;-76
2023/07/25 05:20:39;;;;;;;0.00;0.00;;;13.90;100.00;;;;;;5001537;28;20050;-75
2023/07/25 05:23:06;;;;;;;0.00;0.00;;;13.90;100.00;;;;;;5002709;28;20750;-76
2023/07/25 05:25:33;;;;;;;0.00;0.00;;;14.00;100.00;;;;;;5001245;28;21172;-76
2023/07/25 05:27:59;;;;;;;0.00;0.00;;;14.00;100.00;;;;;;5002349;28;20100;-76
2023/07/25 05:30:26;;;;;;;0.00;0.00;;;14.10;100.00;;;;;;5001360;28;20045;-76
2023/07/25 05:32:53;;;;;;;0.00;0.00;;;14.10;100.00;;;;;;5001331;28;20177;-76
2023/07/25 05:35:20;;;;;;;0.00;0.00;;;14.20;100.00;;;;;;5001154;28;20075;-76
2023/07/25 05:37:47;;;;;;;0.00;0.00;;;14.20;100.00;;;;;;5002561;28;20183;-74
2023/07/25 05:40:14;;;;;;;0.00;0.00;;;14.40;100.00;;;;;;5000463;28;20072;-74
2023/07/25 05:42:40;;;;;;;0.00;0.00;;;14.50;100.00;;;;;;4999030;28;20144;-74
2023/07/25 05:45:08;;;;;;;0.00;0.00;;;14.60;100.00;;;;;;5000830;28;20478;-74
2023/07/25 05:47:34;;;;;;;0.00;0.00;;;14.60;98.40;;;;;;5002191;28;20141;-73
2023/07/25 05:50:02;;;;;;;0.00;0.00;;;14.70;99.30;;;;;;4998999;28;20864;-74
2023/07/25 05:52:29;;;;;;;0.00;0.00;;;14.80;98.00;;;;;;5005754;28;20136;-74
2023/07/25 05:54:55;;;;;;;0.00;0.00;;;14.80;97.10;;;;;;5001214;28;20151;-74
2023/07/25 05:57:22;;;;;;;0.00;0.00;;;14.90;98.30;;;;;;4999758;28;20096;-74
2023/07/25 05:59:49;;;;;;;0.00;0.00;;;15.00;97.20;;;;;;5000725;28;20125;-74
2023/07/25 06:02:16;;;;;;;0.00;0.00;;;15.00;96.90;;;;;;4999131;28;20065;-74
2023/07/25 06:04:46;;;;;;;0.00;0.00;;;15.10;96.50;;;;;;5006430;28;20080;-74
2023/07/25 06:07:14;;;;;;;0.00;0.00;;;15.20;97.40;;;;;;5010286;28;20149;-74
2023/07/25 06:09:41;;;;;;;0.00;0.00;;;15.30;96.40;;;;;;5008010;28;20052;-75
2023/07/25 06:12:09;;;;;;;0.00;0.00;;;15.30;95.50;;;;;;5000980;28;20045;-75
2023/07/25 06:14:36;;;;;;;0.00;0.00;;;15.30;93.70;;;;;;5003093;28;20053;-74
2023/07/25 06:17:03;;;;;;;0.00;0.00;;;15.30;94.30;;;;;;5002591;28;20085;-74
2023/07/25 06:19:30;;;;;;;0.00;0.00;;;15.50;94.70;;;;;;5001571;28;20414;-74
2023/07/25 06:21:57;;;;;;;0.00;0.00;;;15.60;92.30;;;;;;5000252;28;20137;-75
2023/07/25 06:24:24;;;;;;;0.00;0.00;;;15.90;93.30;;;;;;5001801;28;20050;-74
2023/07/25 06:26:51;;;;;;;0.00;0.00;;;16.20;92.90;;;;;;5004251;28;20061;-74
2023/07/25 06:29:18;;;;;;;0.00;0.00;;;16.50;90.90;;;;;;5003313;28;20076;-74
2023/07/25 06:31:45;;;;;;;0.00;0.00;;;16.70;90.40;;;;;;5000656;28;22574;-74
2023/07/25 06:34:12;;;;;;;0.00;0.00;;;16.70;87.80;;;;;;5000209;28;20100;-74
2023/07/25 06:36:39;;;;;;;0.00;0.00;;;17.10;88.70;;;;;;4997551;28;20054;-74
2023/07/25 06:39:06;;;;;;;0.00;0.00;;;17.30;86.20;;;;;;5002602;28;20064;-74
2023/07/25 06:41:32;;;;;;;0.00;0.00;;;17.40;85.40;;;;;;5003266;28;20546;-74
2023/07/25 06:44:00;;;;;;;0.00;0.00;;;17.50;83.80;;;;;;5001199;28;20041;-74
2023/07/25 06:46:27;;;;;;;0.00;0.00;;;17.50;84.00;;;;;;5002785;28;20131;-74
2023/07/25 06:48:53;;;;;;;0.00;0.00;;;17.70;84.70;;;;;;5003020;28;20120;-74
2023/07/25 06:51:20;;;;;;;0.00;0.00;;;17.80;81.90;;;;;;5000225;28;20502;-74
2023/07/25 06:53:47;;;;;;;0.00;0.00;;;18.50;80.20;;;;;;5004082;28;20154;-74
2023/07/25 06:56:14;;;;;;;0.00;0.00;;;19.20;78.90;;;;;;5001161;28;20493;-74
2023/07/25 06:58:41;;;;;;;0.00;0.00;;;19.90;76.70;;;;;;4997903;28;20062;-74
2023/07/25 07:01:08;;;;;;;0.00;0.00;;;19.60;74.10;;;;;;5003116;28;20060;-74
2023/07/25 07:03:35;;;;;;;0.00;0.00;;;19.00;78.50;;;;;;4999319;28;20050;-74
2023/07/25 07:06:02;;;;;;;0.00;0.00;;;19.00;77.00;;;;;;4999957;28;20057;-74
2023/07/25 07:08:29;;;;;;;0.00;0.00;;;19.40;77.10;;;;;;5000010;28;20048;-74
2023/07/25 07:10:56;;;;;;;0.00;0.00;;;20.00;74.70;;;;;;5001328;28;20054;-74
2023/07/25 07:13:23;;;;;;;0.00;0.00;;;20.90;72.10;;;;;;5002495;28;20636;-74
2023/07/25 07:15:50;;;;;;;0.00;0.00;;;21.70;71.30;;;;;;5004271;28;20667;-74
2023/07/25 07:18:17;;;;;;;0.00;0.00;;;22.20;66.10;;;;;;5002274;28;20108;-74
2023/07/25 07:20:48;;;;;;;0.38;0.38;;;21.40;68.30;;;;;;5006362;28;20046;-74
2023/07/25 07:23:15;;;;;;;0.10;0.10;;;20.60;70.50;;;;;;4991268;28;20054;-74
2023/07/25 07:25:43;;;;;;;0.00;0.00;;;21.50;69.10;;;;;;4998362;28;20053;-74
2023/07/25 07:28:11;;;;;;;0.00;0.00;;;21.70;66.30;;;;;;5003549;28;20078;-74
2023/07/25 07:30:54;;;;;;;0.00;0.00;;;21.50;66.20;;;;;;5009101;28;20152;-74
2023/07/25 07:33:22;;;;;;;0.00;0.00;;;20.90;66.70;;;;;;5015497;28;20054;-74
2023/07/25 07:35:48;;;;;;;0.10;0.10;;;20.70;68.70;;;;;;5005301;28;20045;-74
2023/07/25 07:38:15;;;;;;;0.10;0.10;;;21.70;69.20;;;;;;5005940;28;20054;-74
2023/07/25 07:40:42;;;;;;;0.00;0.00;;;22.70;68.60;;;;;;5010504;28;20169;-74
2023/07/25 07:43:09;;;;;;;0.00;0.00;;;23.40;61.40;;;;;;5007219;28;20092;-74
2023/07/25 07:45:35;;;;;;;0.00;0.00;;;22.30;65.20;;;;;;5003429;28;20057;-74
2023/07/25 07:48:02;;;;;;;0.00;0.00;;;22.50;65.40;;;;;;5006195;28;20054;-76
2023/07/25 07:50:33;;;;;;;0.00;0.00;;;22.90;65.50;;;;;;5006424;28;20272;-76
2023/07/25 07:52:59;;;;;;;0.05;0.05;;;23.30;64.10;;;;;;5004048;28;20469;-75
2023/07/25 07:55:27;;;;;;;0.00;0.00;;;22.60;63.00;;;;;;5002877;28;20050;-74
2023/07/25 07:57:54;;;;;;;0.00;0.00;;;22.70;61.10;;;;;;5002838;28;20171;-76
2023/07/25 08:00:21;;;;;;;0.00;0.00;;;22.60;63.30;;;;;;4986435;28;20172;-75
2023/07/25 08:02:49;;;;;;;0.00;0.00;;;21.80;65.20;;;;;;5002457;28;20058;-76
2023/07/25 08:05:16;;;;;;;0.10;0.10;;;22.20;64.40;;;;;;5004144;28;20864;-77
2023/07/25 08:07:43;;;;;;;0.00;0.00;;;22.40;64.50;;;;;;5006573;28;20084;-76
2023/07/25 08:10:10;;;;;;;0.00;0.00;;;23.20;62.70;;;;;;5006833;28;20065;-74
2023/07/25 08:12:37;;;;;;;0.00;0.00;;;24.00;63.80;;;;;;5004751;28;20149;-77
2023/07/25 08:15:05;;;;;;;0.00;0.00;;;24.50;58.40;;;;;;5006172;28;20131;-77
2023/07/25 08:17:32;;;;;;;0.00;0.00;;;24.20;56.90;;;;;;5003060;28;20071;-74
2023/07/25 08:19:59;;;;;;;0.10;0.10;;;23.90;60.80;;;;;;5004254;28;20045;-75
2023/07/25 08:22:26;;;;;;;0.00;0.00;;;24.10;59.80;;;;;;5004784;28;20470;-74
2023/07/25 08:27:33;;;;;;;0.00;0.00;;;23.20;60.80;;;;;;5021994;28;20123;-77
2023/07/25 08:29:59;;;;;;;0.10;0.10;;;23.20;62.10;;;;;;5041806;28;20434;-74
2023/07/25 08:32:26;;;;;;;0.00;0.00;;;23.50;60.10;;;;;;5039603;28;20053;-76
2023/07/25 08:34:53;;;;;;;0.20;0.17;;;23.70;59.40;;;;;;5025602;28;20068;-77
2023/07/25 08:37:20;;;;;;;6.35;1.92;;;24.50;56.20;;;;;;5051494;22;20060;-76
2023/07/25 08:39:47;;;;;;;5.93;1.45;;;24.70;55.60;;;;;;5059408;28;20053;-76
2023/07/25 08:42:17;;;;;;;20.77;2.45;;;23.70;57.60;;;;;;5043734;28;20098;-75
2023/07/25 08:44:46;;;;;;;21.70;4.88;;;24.50;59.70;;;;;;5065654;28;20044;-76
2023/07/25 08:47:19;;;;;;;26.25;3.88;;;24.70;57.70;;;;;;5048293;28;20064;-77
2023/07/25 08:49:49;;;;;;;15.25;2.22;;;24.40;58.50;;;;;;5052552;28;20117;-75
2023/07/25 08:52:17;;;;;;;10.32;1.63;;;24.00;55.60;;;;;;5067631;28;20123;-75
2023/07/25 08:54:48;;;;;;;8.52;1.40;;;23.70;55.50;;;;;;5067455;28;20126;-74
2023/07/25 08:57:20;;;;;;;7.03;1.40;;;24.10;60.80;;;;;;5063619;28;20044;-74
2023/07/25 08:59:48;;;;;;;14.00;1.73;;;24.70;57.80;;;;;;5068495;28;20278;-75
2023/07/25 09:02:16;;;;;;;6.25;2.05;;;25.40;59.50;;;;;;5066727;28;20503;-75
2023/07/25 09:04:47;;;;;;;7.13;1.58;;;24.80;53.70;;;;;;5042191;28;20151;-74
2023/07/25 09:07:14;;;;;;;7.88;1.40;;;24.30;55.40;;;;;;5067047;28;20059;-73
2023/07/25 09:09:40;;;;;;;6.28;1.13;;;23.20;56.60;;;;;;5046328;28;20423;-76
2023/07/25 09:12:08;;;;;;;5.63;1.63;;;22.10;57.40;;;;;;5068171;28;20477;-77
2023/07/25 09:14:39;;;;;;;11.30;1.73;;;21.70;60.10;;;;;;5068764;28;20076;-76
2023/07/25 09:17:06;;;;;;;8.02;1.65;;;21.50;61.50;;;;;;5044444;28;20079;-76
2023/07/25 09:19:33;;;;;;;5.30;1.75;;;21.10;62.00;;;;;;5044157;28;20044;-77
2023/07/25 09:22:00;;;;;;;23.98;3.67;;;20.50;64.90;;;;;;5050585;28;20044;-76
2023/07/25 09:24:38;;;;;;;9.02;1.95;;;20.50;65.00;;;;;;5046818;28;20079;-75
2023/07/25 09:27:16;;;;;;;4.53;1.52;;;20.90;66.20;;;;;;5065513;28;20044;-77
2023/07/25 09:29:43;;;;;;;6.72;1.83;;;22.10;63.10;;;;;;5057996;28;20048;-76
2023/07/25 09:32:18;;;;;;;4.93;1.60;;;23.30;62.20;;;;;;5064807;28;20098;-77
2023/07/25 09:34:52;;;;;;;8.02;1.30;;;24.60;57.40;;;;;;5058660;28;20098;-76
2023/07/25 09:37:18;;;;;;;10.93;1.80;;;25.10;55.40;;;;;;5062634;28;20060;-77
2023/07/25 09:39:45;;;;;;;4.82;1.80;;;25.30;53.10;;;;;;5050166;28;20049;-78
2023/07/25 09:42:12;;;;;;;7.05;1.40;;;23.50;51.30;;;;;;5049626;28;20083;-77
2023/07/25 09:44:48;;;;;;;9.23;1.65;;;22.60;52.30;;;;;;5064113;28;20084;-77
2023/07/25 09:47:21;;;;;;;19.20;3.22;;;22.20;55.30;;;;;;5069817;22;20129;-77
2023/07/25 09:49:48;;;;;;;6.63;1.75;;;21.90;57.90;;;;;;5079402;28;20134;-76
2023/07/25 09:52:16;;;;;;;20.25;2.35;;;21.40;57.70;;;;;;5080225;28;20072;-76
2023/07/25 09:54:43;;;;;;;7.15;1.35;;;21.10;59.90;;;;;;5076368;28;20075;-76
2023/07/25 09:57:10;;;;;;;14.32;2.17;;;21.00;60.50;;;;;;5076549;28;20123;-76
2023/07/25 09:59:37;;;;;;;6.93;1.50;;;21.20;62.10;;;;;;5074595;28;20459;-76
2023/07/25 10:02:05;;;;;;;10.45;1.90;;;21.50;63.30;;;;;;5077438;28;20424;-76
2023/07/25 10:04:38;;;;;;;4.28;1.60;;;21.70;61.90;;;;;;5079397;28;20063;-77
2023/07/25 10:07:07;;;;;;;4.35;1.52;;;21.90;60.90;;;;;;5079530;28;20079;-77
2023/07/25 10:09:35;;;;;;;4.72;1.30;;;22.20;60.80;;;;;;5082100;28;20052;-78
2023/07/25 10:12:03;;;;;;;8.27;1.58;;;23.40;59.30;;;;;;5076634;28;20136;-79
2023/07/25 10:14:36;;;;;;;6.85;1.70;;;24.70;55.70;;;;;;5078341;28;20101;-75
2023/07/25 10:17:04;;;;;;;3.67;1.10;;;24.90;53.00;;;;;;5067007;28;20556;-76
2023/07/25 10:19:54;;;;;;;6.65;1.50;;;24.30;50.30;;;;;;5082150;28;20137;-74
2023/07/25 10:22:38;;;;;;;4.15;1.33;;;24.70;52.70;;;;;;5076573;28;20052;-75
2023/07/25 10:25:18;;;;;;;3.20;1.17;;;25.60;53.90;;;;;;5078587;28;20573;-79
2023/07/25 10:27:46;;;;;;;6.43;1.65;;;25.70;51.00;;;;;;5073027;28;20055;-76
2023/07/25 10:30:24;;;;;;;9.35;1.20;;;26.20;51.00;;;;;;5073717;28;20048;-78
2023/07/25 10:32:56;;;;;;;6.30;1.15;;;26.80;50.50;;;;;;5078831;28;20044;-79
2023/07/25 10:35:52;;;;;;;4.55;1.25;;;27.30;47.20;;;;;;5078655;28;20049;-77
2023/07/25 10:38:34;;;;;;;4.60;1.10;;;27.90;50.10;;;;;;5078703;28;20054;-77
2023/07/25 10:41:13;;;;;;;6.50;1.25;;;28.50;46.70;;;;;;5084075;28;20079;-76
2023/07/25 10:43:48;;;;;;;5.43;1.73;;;28.80;45.30;;;;;;5080003;28;20048;-77
2023/07/25 10:46:17;;;;;;;6.32;1.30;;;29.60;45.70;;;;;;5081311;28;20159;-77
2023/07/25 10:48:45;;;;;;;4.47;1.02;;;29.40;49.60;;;;;;5084278;28;20048;-77
2023/07/25 10:51:15;;;;;;;4.68;1.35;;;29.70;47.90;;;;;;5083304;28;20507;-77
2023/07/25 10:54:12;;;;;;;3.30;1.10;;;30.10;42.80;;;;;;5078188;28;20104;-77
2023/07/25 10:56:40;;;;;;;3.30;1.23;;;29.60;44.50;;;;;;5095934;28;20048;-80
2023/07/25 10:59:11;;;;;;;7.00;1.30;;;29.20;45.30;;;;;;5087560;28;20056;-79
2023/07/25 11:01:48;;;;;;;6.55;1.20;;;30.30;46.90;;;;;;5085193;28;20143;-79
2023/07/25 11:04:25;;;;;;;6.18;1.33;;;30.80;45.00;;;;;;5086064;28;20574;-78
2023/07/25 11:06:58;;;;;;;3.97;1.27;;;30.50;41.10;;;;;;5080478;28;20427;-78
2023/07/25 11:09:26;;;;;;;4.10;1.65;;;29.60;41.80;;;;;;5086900;28;20067;-77
2023/07/25 11:11:55;;;;;;;7.50;1.52;;;28.80;44.70;;;;;;5074618;28;20628;-76
2023/07/25 11:14:23;;;;;;;8.85;1.60;;;28.20;43.80;;;;;;5084286;28;20070;-79
2023/07/25 11:16:51;;;;;;;4.80;1.48;;;26.80;45.40;;;;;;5091120;28;20093;-78
2023/07/25 11:19:23;;;;;;;4.70;1.00;;;27.20;48.20;;;;;;5078972;28;20368;-78
2023/07/25 11:21:50;;;;;;;2.95;0.90;;;28.00;45.60;;;;;;5089448;28;20052;-78
2023/07/25 11:24:19;;;;;;;3.30;0.90;;;27.90;39.50;;;;;;5085459;28;20061;-76
2023/07/25 11:26:46;;;;;;;6.43;1.08;;;26.60;43.00;;;;;;5081120;28;20647;-79
2023/07/25 11:29:13;;;;;;;8.13;1.10;;;26.00;43.90;;;;;;5087529;28;20118;-77
2023/07/25 11:31:48;;;;;;;10.77;1.65;;;25.00;45.30;;;;;;5083810;28;20046;-78
2023/07/25 11:34:18;;;;;;;11.88;1.70;;;24.30;47.10;;;;;;5077760;28;20132;-78
2023/07/25 11:36:45;;;;;;;2.03;1.00;;;23.80;49.10;;;;;;5084986;28;20515;-77
2023/07/25 11:39:13;;;;;;;7.32;1.48;;;23.70;49.10;;;;;;5086982;28;20051;-76
2023/07/25 11:41:43;;;;;;;6.97;1.40;;;23.40;49.30;;;;;;5076726;28;20132;-75
2023/07/25 11:44:12;;;;;;;4.22;1.80;;;22.90;50.80;;;;;;5080626;28;20044;-76
2023/07/25 11:46:42;;;;;;;11.25;2.78;;;22.70;52.60;;;;;;5079133;28;20048;-76
2023/07/25 11:49:11;;;;;;;7.50;1.38;;;22.60;53.30;;;;;;5074660;28;20501;-75
2023/07/25 11:51:38;;;;;;;8.18;1.25;;;22.10;53.10;;;;;;5080789;28;20137;-75
2023/07/25 11:54:06;;;;;;;7.35;1.50;;;21.70;53.60;;;;;;5078765;28;20362;-74
2023/07/25 11:56:34;;;;;;;4.68;1.63;;;21.30;54.40;;;;;;5083119;28;20131;-75
2023/07/25 11:59:02;;;;;;;8.20;1.80;;;20.80;57.20;;;;;;5076925;28;20117;-75
2023/07/25 12:01:31;;;;;;;6.45;1.90;;;20.50;60.00;;;;;;5075403;28;20148;-75
2023/07/25 12:04:02;;;;;;;6.40;1.88;;;20.00;61.10;;;;;;5073525;28;20117;-75
2023/07/25 12:06:31;;;;;;;4.75;1.85;;;20.00;62.20;;;;;;5084028;28;20911;-74
2023/07/25 12:09:00;;;;;;;9.70;1.95;;;19.70;63.70;;;;;;5079506;28;20055;-74
2023/07/25 12:11:27;;;;;;;9.52;1.95;;;19.50;63.40;;;;;;5077661;28;20121;-75
2023/07/25 12:13:56;;;;;;;4.45;1.50;;;19.40;65.40;;;;;;5084394;28;20044;-80
2023/07/25 12:16:44;;;;;;;9.57;1.95;;;19.20;65.80;;;;;;5077814;28;20160;-77
2023/07/25 12:19:14;;;;;;;6.40;1.83;;;18.90;66.80;;;;;;5077569;28;20048;-77
2023/07/25 12:21:46;;;;;;;11.32;1.88;;;18.80;67.60;;;;;;5081876;28;20147;-77
2023/07/25 12:24:15;;;;;;;6.95;1.73;;;18.80;67.70;;;;;;5086532;28;20135;-77
2023/07/25 12:26:47;;;;;;;5.88;1.55;;;18.60;68.00;;;;;;5084969;28;20048;-76
2023/07/25 12:29:15;;;;;;;5.70;1.80;;;18.70;67.60;;;;;;5085375;28;20134;-75
2023/07/25 12:31:43;;;;;;;6.25;2.08;;;18.80;66.80;;;;;;5082880;28;20131;-77
2023/07/25 12:34:10;;;;;;;5.25;1.67;;;18.80;67.70;;;;;;5079958;28;20555;-76
2023/07/25 12:36:37;;;;;;;3.55;1.33;;;18.90;67.90;;;;;;5080553;28;20055;-79
2023/07/25 12:39:04;;;;;;;5.38;1.35;;;19.00;67.60;;;;;;5082344;28;20050;-75
2023/07/25 12:41:31;;;;;;;2.67;1.00;;;19.10;66.50;;;;;;5074779;28;20052;-76
2023/07/25 12:43:58;;;;;;;3.60;1.35;;;19.10;66.80;;;;;;5076842;28;20131;-77
2023/07/25 12:46:26;;;;;;;4.90;1.20;;;19.20;65.60;;;;;;5076279;28;20055;-75
2023/07/25 12:48:53;;;;;;;2.00;1.02;;;19.30;64.00;;;;;;5075347;28;20049;-79
2023/07/25 12:51:20;;;;;;;4.53;1.25;;;19.30;62.70;;;;;;5083494;28;20064;-78